Time;durP1;ratioP1;P1;durP2;ratioP2;P2;SDS_P1;SDS_P2;PMS_P1;PMS_P2;Temp;Humidity;BMP_temperature;BMP_pressure;BME280_temperature;BME280_humidity;BME280_pressure;Samples;Min_cycle;Max_cycle;Signal;HPM_P1;HPM_P2
2022/10/13 08:19:25;;;;;;;8.37;7.57;;;16.50;78.30;;;-142.21;100.00;112049.66;5060400;28;20603;-69
2022/10/13 08:21:52;;;;;;;10.83;7.70;;;16.50;78.10;;;-142.21;100.00;112049.66;5071722;28;20431;-68
2022/10/13 08:24:21;;;;;;;7.30;6.50;;;16.50;78.20;;;-142.21;100.00;112049.66;5070974;28;20438;-69
2022/10/13 08:30:29;;;;;;;11.77;7.33;;;16.70;78.60;;;-142.21;100.00;112049.66;5071489;28;20419;-69
2022/10/13 08:32:56;;;;;;;11.03;7.00;;;16.80;78.20;;;-142.21;100.00;112049.66;5072235;28;20439;-69
2022/10/13 08:35:24;;;;;;;10.23;6.40;;;16.80;78.20;;;-142.21;100.00;112049.66;5071409;28;20937;-69
2022/10/13 08:38:43;;;;;;;11.13;6.63;;;16.90;78.50;;;-142.21;100.00;112049.66;5071211;28;20454;-68
2022/10/13 08:41:23;;;;;;;9.70;7.03;;;16.90;78.20;;;-142.21;100.00;112049.66;5071796;28;20473;-69
2022/10/13 08:43:55;;;;;;;12.57;7.73;;;17.00;78.40;;;-142.21;100.00;112049.66;5071971;28;20250;-69
2022/10/13 08:46:28;;;;;;;11.83;7.57;;;17.00;79.20;;;-142.21;100.00;112049.66;5070768;28;20437;-70
2022/10/13 08:48:59;;;;;;;12.17;7.27;;;17.00;78.10;;;-142.21;100.00;112049.66;5071645;28;20630;-70
2022/10/13 08:51:29;;;;;;;7.67;6.87;;;17.00;78.00;;;-142.21;100.00;112049.66;5070612;28;20434;-70
2022/10/13 08:53:56;;;;;;;7.93;6.93;;;17.00;78.50;;;-142.21;100.00;112049.66;5071526;28;20443;-69
2022/10/13 08:56:26;;;;;;;10.60;7.57;;;17.10;78.20;;;-142.21;100.00;112049.66;5070842;28;20442;-69
2022/10/13 08:58:55;;;;;;;10.83;7.40;;;17.10;78.30;;;-142.21;100.00;112049.66;5071336;28;20538;-70
2022/10/13 09:01:27;;;;;;;10.53;7.33;;;17.20;78.30;;;-142.21;100.00;112049.66;5070974;28;20478;-69
2022/10/13 09:04:07;;;;;;;9.57;6.97;;;17.20;78.60;;;-142.21;100.00;112049.66;5071423;28;20452;-69
2022/10/13 09:06:42;;;;;;;9.57;7.43;;;17.20;78.30;;;-142.21;100.00;112049.66;5070619;28;20518;-70
2022/10/13 09:09:13;;;;;;;10.13;7.23;;;17.30;78.30;;;-142.21;100.00;112049.66;5071568;28;20419;-70
2022/10/13 09:11:44;;;;;;;12.27;9.93;;;17.30;78.40;;;-142.21;100.00;112049.66;5070610;28;20451;-69
2022/10/13 09:14:21;;;;;;;16.20;9.43;;;17.20;78.30;;;-142.21;100.00;112049.66;5071041;28;20518;-70
2022/10/13 09:16:54;;;;;;;10.33;8.20;;;17.20;78.50;;;-142.21;100.00;112049.66;5071656;28;20418;-70
2022/10/13 09:19:28;;;;;;;12.10;8.20;;;17.20;78.60;;;-142.21;100.00;112049.66;5070070;28;20487;-69
2022/10/13 09:22:14;;;;;;;10.27;7.63;;;17.30;78.90;;;-142.21;100.00;112049.66;5070846;28;20433;-69
2022/10/13 09:24:44;;;;;;;12.33;7.13;;;17.30;78.80;;;-142.21;100.00;112049.66;5070727;28;20432;-69
2022/10/13 09:27:16;;;;;;;8.43;7.63;;;17.30;78.60;;;-142.21;100.00;112049.66;5071387;28;20464;-69
2022/10/13 09:29:44;;;;;;;11.90;8.50;;;17.40;79.40;;;-142.21;100.00;112049.66;5071275;28;20815;-70
2022/10/13 09:32:19;;;;;;;11.33;7.97;;;17.40;78.30;;;-142.21;100.00;112049.66;5071357;28;20530;-69
2022/10/13 09:34:47;;;;;;;11.90;8.23;;;17.40;78.50;;;-142.21;100.00;112049.66;5071142;28;20529;-70
2022/10/13 09:37:22;;;;;;;12.03;8.10;;;17.50;78.30;;;-142.21;100.00;112049.66;5070793;28;20457;-69
2022/10/13 09:40:11;;;;;;;9.60;7.70;;;17.50;78.40;;;-142.21;100.00;112049.66;5071355;28;20559;-69
2022/10/13 09:42:39;;;;;;;11.17;8.17;;;17.50;78.60;;;-142.21;100.00;112049.66;5070542;28;20431;-69
2022/10/13 09:45:16;;;;;;;10.47;8.43;;;17.60;78.30;;;-142.21;100.00;112049.66;5071143;28;20446;-70
2022/10/13 09:47:53;;;;;;;11.37;8.63;;;17.70;78.20;;;-142.21;100.00;112049.66;5070988;28;20514;-70
2022/10/13 09:50:24;;;;;;;13.10;9.47;;;17.80;78.00;;;-142.21;100.00;112049.66;5069858;28;20911;-69
2022/10/13 09:52:53;;;;;;;12.60;9.83;;;17.70;76.90;;;-142.21;100.00;112049.66;5070987;28;20240;-69
2022/10/13 09:55:33;;;;;;;14.33;9.80;;;17.70;77.00;;;-142.21;100.00;112049.66;5070053;28;20992;-69
2022/10/13 09:58:09;;;;;;;13.43;9.20;;;17.80;77.00;;;-142.21;100.00;112049.66;5072203;28;20514;-69
2022/10/13 10:00:37;;;;;;;17.07;9.20;;;17.90;77.00;;;-142.21;100.00;112049.66;5074084;28;20470;-72
2022/10/13 10:03:15;;;;;;;11.80;8.40;;;18.00;76.80;;;-142.21;100.00;112049.66;5074791;28;20474;-69
2022/10/13 10:05:52;;;;;;;10.87;8.93;;;18.10;77.70;;;-142.21;100.00;112049.66;5074011;28;20463;-70
2022/10/13 10:08:26;;;;;;;13.03;9.67;;;18.10;76.70;;;-142.21;100.00;112049.66;5074316;28;20435;-70
2022/10/13 10:10:56;;;;;;;16.60;10.17;;;18.10;76.30;;;-142.21;100.00;112049.66;5074685;28;20426;-69
2022/10/13 10:13:25;;;;;;;12.40;10.07;;;18.20;76.10;;;-142.21;100.00;112049.66;5073908;28;20208;-69
2022/10/13 10:16:04;;;;;;;16.20;10.03;;;18.20;76.00;;;-142.21;100.00;112049.66;5074344;28;20475;-69
2022/10/13 10:18:41;;;;;;;16.57;11.50;;;18.30;75.90;;;-142.21;100.00;112049.66;5073394;28;20509;-69
2022/10/13 10:21:18;;;;;;;16.73;11.30;;;18.20;75.70;;;-142.21;100.00;112049.66;5074374;28;20601;-69
2022/10/13 10:23:54;;;;;;;14.73;10.67;;;18.10;76.00;;;-142.21;100.00;112049.66;5074599;28;20284;-70
2022/10/13 10:26:29;;;;;;;15.43;9.87;;;18.10;76.00;;;-142.21;100.00;112049.66;5081340;28;20517;-70
2022/10/13 10:29:19;;;;;;;14.67;9.27;;;18.30;76.00;;;-142.21;100.00;112049.66;5094708;28;20252;-70
2022/10/13 10:32:05;;;;;;;12.77;9.63;;;18.50;76.00;;;-142.21;100.00;112049.66;5090924;28;20442;-69
2022/10/13 10:34:42;;;;;;;15.27;10.00;;;18.70;76.10;;;-142.21;100.00;112049.66;5093962;28;20456;-70
2022/10/13 10:37:49;;;;;;;12.47;10.10;;;19.00;76.00;;;-142.21;100.00;112049.66;5094137;28;20457;-70
2022/10/13 10:40:36;;;;;;;15.53;10.50;;;19.10;75.00;;;-142.21;100.00;112049.66;5068959;28;20355;-70
2022/10/13 10:43:50;;;;;;;13.73;9.70;;;19.20;74.60;;;-142.21;100.00;112049.66;5094387;28;20476;-69
2022/10/13 10:46:22;;;;;;;13.60;10.77;;;19.30;74.60;;;-142.21;100.00;112049.66;5087543;28;20208;-69
2022/10/13 10:48:55;;;;;;;14.67;10.30;;;19.30;73.30;;;-142.21;100.00;112049.66;5094131;28;20192;-69
2022/10/13 10:51:29;;;;;;;18.73;11.00;;;19.30;73.30;;;-142.21;100.00;112049.66;5093864;28;20192;-70
2022/10/13 10:54:17;;;;;;;13.30;10.57;;;19.30;73.60;;;-142.21;100.00;112049.66;5094043;28;20288;-69
2022/10/13 10:56:54;;;;;;;13.17;10.33;;;19.30;73.40;;;-142.21;100.00;112049.66;5093397;28;20193;-71
2022/10/13 10:59:46;;;;;;;15.80;10.73;;;19.30;73.50;;;-142.21;100.00;112049.66;5093859;28;20310;-69
2022/10/13 11:02:42;;;;;;;18.17;12.43;;;19.40;73.70;;;-142.21;100.00;112049.66;5093977;28;20185;-70
2022/10/13 11:05:10;;;;;;;15.50;10.60;;;19.30;73.60;;;-142.21;100.00;112049.66;5094125;28;20317;-70
2022/10/13 11:07:58;;;;;;;13.73;10.60;;;19.30;73.90;;;-142.21;100.00;112049.66;5093400;28;20290;-70
2022/10/13 11:10:28;;;;;;;15.53;11.20;;;19.40;74.20;;;-142.21;100.00;112049.66;5093158;28;20238;-69
2022/10/13 11:13:26;;;;;;;18.93;12.90;;;19.40;74.20;;;-142.21;100.00;112049.66;5093654;28;20206;-69
2022/10/13 11:15:55;;;;;;;20.47;12.20;;;19.30;73.40;;;-142.21;100.00;112049.66;5093845;28;20837;-69
2022/10/13 11:19:05;;;;;;;14.90;11.50;;;19.20;73.80;;;-142.21;100.00;112049.66;5093201;28;20478;-69
2022/10/13 11:22:22;;;;;;;17.67;12.57;;;19.20;74.00;;;-142.21;100.00;112049.66;5093412;28;20192;-69
2022/10/13 11:25:28;;;;;;;18.43;12.67;;;19.20;74.00;;;-142.21;100.00;112049.66;5092596;28;20204;-69
2022/10/13 11:27:55;;;;;;;14.73;11.93;;;19.10;74.10;;;-142.21;100.00;112049.66;5072639;28;20204;-70
2022/10/13 11:30:49;;;;;;;15.33;12.53;;;19.10;74.10;;;-142.21;100.00;112049.66;5072253;28;20225;-70
2022/10/13 11:33:56;;;;;;;17.97;12.60;;;19.20;74.20;;;-142.21;100.00;112049.66;5072813;28;20648;-70
2022/10/13 11:36:57;;;;;;;18.43;13.00;;;19.20;74.00;;;-142.21;100.00;112049.66;5054808;28;20200;-69
2022/10/13 11:40:09;;;;;;;16.47;12.70;;;19.20;73.70;;;-142.21;100.00;112049.66;5072437;28;20736;-69
2022/10/13 11:43:31;;;;;;;18.77;12.87;;;19.30;73.80;;;-142.21;100.00;112049.66;5072550;28;20225;-69
2022/10/13 11:46:38;;;;;;;17.13;12.40;;;19.40;73.80;;;-142.21;100.00;112049.66;5072715;28;20209;-69
2022/10/13 11:50:00;;;;;;;18.33;12.27;;;19.70;73.30;;;-142.21;97.97;112049.66;5072983;28;20236;-70
2022/10/13 11:52:46;;;;;;;16.10;12.67;;;20.00;71.90;;;-142.21;95.52;112049.66;4990750;28;20652;-70
2022/10/13 11:55:21;;;;;;;16.20;12.23;;;20.30;70.80;;;-142.21;95.43;112049.66;5060851;28;20200;-70
2022/10/13 11:57:52;;;;;;;16.27;11.93;;;20.40;70.60;;;-142.21;94.47;112049.66;5072556;28;20215;-70
2022/10/13 12:00:22;;;;;;;15.67;11.97;;;20.40;70.30;;;-142.21;94.03;112049.66;5072464;28;20221;-74
2022/10/13 12:02:53;;;;;;;17.17;11.47;;;20.50;69.80;;;-142.21;94.44;112049.66;5072756;28;20219;-70
2022/10/13 12:05:24;;;;;;;17.23;12.93;;;20.50;69.80;;;-142.21;94.76;112049.66;5072602;28;20598;-70
2022/10/13 12:07:55;;;;;;;13.00;10.33;;;20.50;69.80;;;-142.21;95.75;112049.66;5072493;28;20196;-69
2022/10/13 12:10:31;;;;;;;14.73;11.43;;;20.50;70.40;;;-142.21;94.96;112049.66;5072186;28;20276;-69
2022/10/13 12:12:59;;;;;;;17.87;12.47;;;20.40;69.70;;;-142.21;95.28;112049.66;5072737;28;20228;-69
2022/10/13 12:15:34;;;;;;;13.80;11.90;;;20.40;69.70;;;-142.21;96.58;112049.66;5071420;28;20200;-70
2022/10/13 12:18:03;;;;;;;17.97;12.80;;;20.30;70.20;;;-142.21;96.27;112049.66;5072174;28;20236;-69
2022/10/13 12:20:33;;;;;;;16.57;11.47;;;20.20;70.30;;;-142.21;96.37;112049.66;5070697;28;20232;-70
2022/10/13 12:23:00;;;;;;;13.03;10.97;;;20.10;70.40;;;-142.21;97.34;112049.66;5072448;28;20313;-69
2022/10/13 12:25:32;;;;;;;14.80;11.67;;;20.10;70.60;;;-142.21;96.83;112049.66;5071818;28;20201;-69
2022/10/13 12:28:00;;;;;;;17.00;11.03;;;20.10;70.50;;;-142.21;96.85;112049.66;5072227;28;20334;-69
2022/10/13 12:30:34;;;;;;;14.37;11.23;;;20.10;70.50;;;-142.21;96.74;112049.66;5070929;28;20247;-69
2022/10/13 12:33:17;;;;;;;15.03;10.90;;;20.00;70.50;;;-142.21;97.51;112049.66;5072132;28;20197;-69
2022/10/13 12:35:44;;;;;;;14.37;10.93;;;20.00;70.80;;;-142.21;98.34;112049.66;5071330;28;20277;-70
2022/10/13 12:38:18;;;;;;;19.47;13.27;;;20.00;71.40;;;-142.21;97.21;112049.66;5071640;28;20262;-70
2022/10/13 12:40:48;;;;;;;18.10;12.90;;;20.00;70.80;;;-142.21;97.36;112049.66;5071468;28;20217;-70
2022/10/13 12:43:20;;;;;;;18.03;11.97;;;19.90;70.80;;;-142.21;97.12;112049.66;5071844;28;20202;-69
2022/10/13 12:45:47;;;;;;;19.80;11.37;;;19.90;70.80;;;-142.21;97.24;112049.66;5071181;28;20292;-70
2022/10/13 12:48:35;;;;;;;17.53;12.63;;;20.00;71.70;;;-142.21;96.71;112049.66;5071729;28;20252;-70
2022/10/13 12:51:20;;;;;;;15.57;11.43;;;20.00;70.40;;;-142.21;97.53;112049.66;5071622;28;20665;-70
2022/10/13 12:53:48;;;;;;;13.10;11.53;;;20.00;70.80;;;-142.21;97.21;112049.66;5071019;28;20641;-70
2022/10/13 12:56:29;;;;;;;15.77;11.20;;;20.00;70.90;;;-142.21;98.11;112049.66;5071533;28;20740;-70
2022/10/13 12:58:58;;;;;;;18.53;11.17;;;20.10;71.40;;;-142.21;98.32;112049.66;5071219;28;20239;-70
2022/10/13 13:01:34;;;;;;;14.73;12.07;;;20.10;71.30;;;-142.21;98.56;112049.66;5071693;28;20312;-70
2022/10/13 13:04:17;;;;;;;14.53;11.43;;;20.10;71.50;;;-142.21;97.68;112049.66;5071580;28;20236;-70
2022/10/13 13:06:57;;;;;;;16.27;11.33;;;20.10;71.20;;;-142.21;98.03;112049.66;5070760;28;20649;-70
2022/10/13 13:09:31;;;;;;;22.40;11.97;;;20.20;71.40;;;-142.21;97.48;112049.66;5071820;28;20583;-69
2022/10/13 13:12:26;;;;;;;14.53;11.40;;;20.20;71.10;;;-142.21;96.45;112049.66;5070964;28;20281;-69
2022/10/13 13:14:54;;;;;;;17.03;12.33;;;20.20;70.50;;;-142.21;96.97;112049.66;5040889;28;20291;-70
2022/10/13 13:17:32;;;;;;;19.80;11.70;;;20.10;70.70;;;-142.21;97.48;112049.66;5071466;28;20608;-69
2022/10/13 13:20:01;;;;;;;17.30;12.43;;;20.20;71.20;;;-142.21;97.43;112049.66;5071368;28;20225;-70
2022/10/13 13:22:28;;;;;;;15.30;11.07;;;20.20;71.10;;;-142.21;97.36;112049.66;5071270;28;20212;-70
2022/10/13 13:24:56;;;;;;;18.37;11.27;;;20.20;71.00;;;-142.21;97.25;112049.66;5071164;28;20211;-69
2022/10/13 13:27:33;;;;;;;18.10;11.70;;;20.20;71.10;;;-142.21;96.92;112049.66;5086924;28;20204;-70
2022/10/13 13:30:01;;;;;;;12.03;9.83;;;20.20;70.80;;;-142.21;96.93;112049.66;5091311;28;20228;-69
2022/10/13 13:32:29;;;;;;;21.53;11.00;;;20.20;71.00;;;-142.21;96.50;112049.66;5093725;28;20287;-69
2022/10/13 13:34:57;;;;;;;11.97;9.63;;;20.20;70.90;;;-142.21;96.97;112049.66;5096017;28;20208;-69
2022/10/13 13:37:31;;;;;;;19.00;11.13;;;20.20;70.90;;;-142.21;97.35;112049.66;5095620;28;20206;-70
2022/10/13 13:39:59;;;;;;;16.60;10.27;;;20.20;71.10;;;-142.21;97.14;112049.66;5095695;28;20294;-69
2022/10/13 13:42:28;;;;;;;13.50;10.07;;;20.20;71.30;;;-142.21;98.04;112049.66;5095041;28;20668;-69
2022/10/13 13:44:56;;;;;;;13.70;9.67;;;20.20;71.50;;;-142.21;97.73;112049.66;5095584;28;20235;-70
2022/10/13 13:47:28;;;;;;;12.40;10.10;;;20.20;71.40;;;-142.21;96.65;112049.66;5095254;28;20231;-70
2022/10/13 13:49:57;;;;;;;12.37;9.60;;;20.20;71.00;;;-142.21;97.39;112049.66;5095670;28;20203;-69
2022/10/13 13:52:26;;;;;;;16.80;10.27;;;20.20;71.80;;;-142.21;97.02;112049.66;5094932;28;20204;-70
2022/10/13 13:54:54;;;;;;;15.20;10.40;;;20.20;72.50;;;-142.21;96.81;112049.66;5095011;28;20292;-69
2022/10/13 13:57:22;;;;;;;12.80;10.00;;;20.20;71.50;;;-142.21;96.85;112049.66;5094985;28;20204;-69
2022/10/13 13:59:51;;;;;;;15.03;11.03;;;20.20;71.20;;;-142.21;97.34;112049.66;5094374;28;20208;-70
2022/10/13 14:02:21;;;;;;;16.70;10.33;;;20.30;71.70;;;-142.21;96.88;112049.66;5095171;28;20215;-70
2022/10/13 14:04:49;;;;;;;14.07;9.97;;;20.30;71.20;;;-142.21;97.21;112049.66;5094186;28;20204;-71
2022/10/13 14:07:17;;;;;;;14.90;10.17;;;20.40;71.30;;;-142.21;97.16;112049.66;5095258;28;20205;-69
2022/10/13 14:09:46;;;;;;;13.27;9.53;;;20.40;71.40;;;-142.21;97.50;112049.66;5093902;28;20212;-70
2022/10/13 14:12:15;;;;;;;17.33;9.50;;;20.30;71.50;;;-142.21;97.85;112049.66;5094428;28;20295;-70
2022/10/13 14:14:42;;;;;;;14.40;10.73;;;20.30;71.60;;;-142.21;97.65;112049.66;5094091;28;20740;-70
2022/10/13 14:17:11;;;;;;;15.17;9.67;;;20.30;71.70;;;-142.21;97.94;112049.66;5094670;28;20253;-70
2022/10/13 14:19:38;;;;;;;12.03;9.40;;;20.30;72.00;;;-142.21;98.22;112049.66;5094182;28;20211;-70
2022/10/13 14:22:05;;;;;;;17.03;10.67;;;20.30;72.20;;;-142.21;97.42;112049.66;5094681;28;20216;-70
2022/10/13 14:24:32;;;;;;;16.30;9.80;;;20.20;71.70;;;-142.21;97.84;112049.66;5094111;28;20295;-70
2022/10/13 14:27:03;;;;;;;14.90;10.43;;;20.20;72.10;;;-142.21;97.73;112049.66;5088255;28;20657;-70
2022/10/13 14:29:30;;;;;;;23.07;10.57;;;20.20;72.20;;;-142.21;98.33;112049.66;5094810;28;20256;-69
2022/10/13 14:31:58;;;;;;;14.47;9.80;;;20.10;72.40;;;-142.21;98.21;112049.66;5094141;28;20246;-69
2022/10/13 14:34:25;;;;;;;16.40;9.93;;;20.10;72.70;;;-142.21;98.96;112049.66;5094901;28;20217;-71
2022/10/13 14:36:55;;;;;;;14.40;10.20;;;20.10;72.90;;;-142.21;98.71;112049.66;5094087;28;20208;-69
2022/10/13 14:39:22;;;;;;;16.87;9.90;;;20.20;73.00;;;-142.21;99.22;112049.66;5094514;28;20244;-70
2022/10/13 14:41:49;;;;;;;17.70;9.80;;;20.10;72.90;;;-142.21;99.03;112049.66;5093401;28;20229;-70
2022/10/13 14:44:18;;;;;;;13.17;9.33;;;20.10;72.90;;;-142.21;99.14;112049.66;5093786;28;20208;-69
2022/10/13 14:46:48;;;;;;;13.23;9.20;;;20.10;72.90;;;-142.21;99.31;112049.66;5093486;28;20201;-69
2022/10/13 14:49:15;;;;;;;16.50;8.90;;;20.20;73.00;;;-142.21;99.75;112049.66;5093315;28;20572;-70
2022/10/13 14:51:45;;;;;;;13.90;9.53;;;20.20;73.30;;;-142.21;99.68;112049.66;5093733;28;20204;-70
2022/10/13 14:54:15;;;;;;;10.70;8.20;;;20.30;73.20;;;-142.21;99.90;112049.66;5094533;28;20614;-69
2022/10/13 14:56:44;;;;;;;17.33;9.17;;;20.30;73.20;;;-142.21;99.78;112049.66;5086321;28;20291;-69
2022/10/13 14:59:12;;;;;;;16.43;9.13;;;20.30;73.10;;;-142.21;99.91;112049.66;5094109;28;20216;-70
2022/10/13 15:01:43;;;;;;;12.50;9.00;;;20.30;73.10;;;-142.21;99.93;112049.66;5093680;28;20256;-70
2022/10/13 15:04:10;;;;;;;16.60;9.30;;;20.30;73.20;;;-142.21;100.00;112049.66;5093951;28;20336;-69
2022/10/13 15:06:39;;;;;;;12.50;8.43;;;20.30;73.10;;;-142.21;100.00;112049.66;5093566;28;20633;-70
2022/10/13 15:09:08;;;;;;;13.37;8.40;;;20.30;73.20;;;-142.21;100.00;112049.66;5093591;28;20204;-71
2022/10/13 15:11:38;;;;;;;14.43;9.50;;;20.30;73.20;;;-142.21;99.05;112049.66;5093277;28;20205;-69
2022/10/13 15:14:06;;;;;;;13.50;8.40;;;20.20;73.00;;;-142.21;99.18;112049.66;5093980;28;20189;-70
2022/10/13 15:16:35;;;;;;;13.53;9.10;;;20.10;73.40;;;-142.21;99.39;112049.66;5093698;28;20676;-70
2022/10/13 15:19:05;;;;;;;12.73;8.17;;;20.10;73.60;;;-142.21;99.50;112049.66;5093453;28;20708;-69
2022/10/13 15:21:32;;;;;;;12.17;8.70;;;20.10;73.80;;;-142.21;100.00;112049.66;5093508;28;20700;-70
2022/10/13 15:24:00;;;;;;;11.17;8.80;;;20.20;73.90;;;-142.21;99.32;112049.66;5093274;28;20255;-69
2022/10/13 15:26:28;;;;;;;14.27;9.10;;;20.20;73.50;;;-142.21;99.53;112049.66;5093675;28;20571;-69
2022/10/13 15:28:55;;;;;;;11.43;8.67;;;20.20;73.50;;;-142.21;99.69;112049.66;5092577;28;20254;-69
2022/10/13 15:31:23;;;;;;;14.30;8.60;;;20.20;73.60;;;-142.21;100.00;112049.66;5093229;28;20664;-69
2022/10/13 15:33:53;;;;;;;12.97;8.83;;;20.20;73.80;;;-142.21;100.00;112049.66;5092699;28;20265;-70
2022/10/13 15:36:24;;;;;;;14.80;9.07;;;20.20;73.90;;;-142.21;100.00;112049.66;5093877;28;20204;-70
2022/10/13 15:38:52;;;;;;;11.60;8.67;;;20.10;74.10;;;-142.21;100.00;112049.66;5092476;28;20220;-70
2022/10/13 15:41:21;;;;;;;14.07;9.03;;;20.10;74.30;;;-142.21;100.00;112049.66;5092931;28;20311;-71
2022/10/13 15:43:49;;;;;;;12.63;8.87;;;20.10;74.10;;;-142.21;100.00;112049.66;5092529;28;20240;-70
2022/10/13 15:46:22;;;;;;;11.13;8.70;;;20.10;74.00;;;-142.21;100.00;112049.66;5093008;28;20208;-69
2022/10/13 15:48:50;;;;;;;14.20;8.97;;;20.10;74.00;;;-142.21;100.00;112049.66;5092710;28;20196;-70
2022/10/13 15:51:22;;;;;;;11.93;9.60;;;20.10;74.00;;;-142.21;100.00;112049.66;5092587;28;20657;-70
2022/10/13 15:53:50;;;;;;;14.53;9.33;;;20.00;74.30;;;-142.21;100.00;112049.66;5092092;28;20275;-69
2022/10/13 15:56:18;;;;;;;14.57;9.40;;;20.00;74.70;;;-142.21;100.00;112049.66;5091955;28;20254;-69
2022/10/13 15:58:45;;;;;;;13.77;8.43;;;20.00;74.90;;;-142.21;100.00;112049.66;5092147;28;20676;-71
2022/10/13 16:01:16;;;;;;;13.07;8.27;;;20.00;74.80;;;-142.21;100.00;112049.66;5092785;28;20310;-70
2022/10/13 16:03:44;;;;;;;11.03;8.67;;;20.10;74.60;;;-142.21;100.00;112049.66;5092243;28;20283;-69
2022/10/13 16:06:13;;;;;;;12.93;9.27;;;20.00;74.60;;;-142.21;100.00;112049.66;5092824;28;20238;-69
2022/10/13 16:08:43;;;;;;;13.13;8.33;;;20.00;74.70;;;-142.21;100.00;112049.66;5091932;28;20204;-69
2022/10/13 16:11:12;;;;;;;14.40;8.70;;;20.00;74.90;;;-142.21;100.00;112049.66;5092800;28;20212;-69
2022/10/13 16:13:40;;;;;;;13.43;7.90;;;20.00;74.90;;;-142.21;100.00;112049.66;5091947;28;20239;-70
2022/10/13 16:16:08;;;;;;;14.33;9.23;;;19.90;75.00;;;-142.21;100.00;112049.66;5092389;28;20250;-69
2022/10/13 16:18:39;;;;;;;12.00;8.20;;;19.90;75.10;;;-142.21;100.00;112049.66;5092247;28;20258;-69
2022/10/13 16:21:10;;;;;;;12.13;8.57;;;19.90;75.00;;;-142.21;100.00;112049.66;5092224;28;20227;-70
2022/10/13 16:23:38;;;;;;;12.13;8.20;;;19.90;75.20;;;-142.21;100.00;112049.66;5092022;28;20397;-70
2022/10/13 16:26:07;;;;;;;13.73;8.87;;;19.90;75.20;;;-142.21;100.00;112049.66;5087118;28;20250;-69
2022/10/13 16:28:35;;;;;;;10.67;8.63;;;19.90;75.30;;;-142.21;100.00;112049.66;5091848;28;20228;-70
2022/10/13 16:31:04;;;;;;;14.53;9.37;;;19.90;75.30;;;-142.21;100.00;112049.66;5092509;28;20644;-70
2022/10/13 16:33:34;;;;;;;11.47;8.13;;;19.90;75.30;;;-142.21;100.00;112049.66;5092276;28;20441;-69
2022/10/13 16:36:07;;;;;;;12.00;8.17;;;19.90;75.30;;;-142.21;100.00;112049.66;5091359;28;20236;-69
2022/10/13 16:38:35;;;;;;;13.80;8.63;;;19.90;75.30;;;-142.21;100.00;112049.66;5092612;28;20204;-69
2022/10/13 16:41:11;;;;;;;16.20;9.10;;;19.90;75.30;;;-142.21;100.00;112049.66;5091697;28;20334;-70
2022/10/13 16:43:41;;;;;;;11.87;8.40;;;19.80;75.30;;;-142.21;100.00;112049.66;5092106;28;20193;-69
2022/10/13 16:46:14;;;;;;;11.83;8.73;;;19.80;75.20;;;-142.21;100.00;112049.66;5092247;28;20200;-70
2022/10/13 16:48:42;;;;;;;13.47;9.07;;;19.80;75.40;;;-142.21;100.00;112049.66;5091585;28;20239;-69
2022/10/13 16:51:14;;;;;;;13.20;8.90;;;19.80;75.40;;;-142.21;100.00;112049.66;5092020;28;20211;-69
2022/10/13 16:53:41;;;;;;;14.20;9.20;;;19.80;75.50;;;-142.21;100.00;112049.66;5091565;28;20184;-69
2022/10/13 16:56:10;;;;;;;13.20;8.90;;;19.70;75.50;;;-142.21;100.00;112049.66;5091699;28;20747;-70
2022/10/13 16:58:42;;;;;;;16.67;13.27;;;19.70;75.80;;;-142.21;100.00;112049.66;5091999;28;20212;-69
2022/10/13 17:01:11;;;;;;;26.77;16.23;;;19.70;75.80;;;-142.21;100.00;112049.66;5091729;28;20682;-70
2022/10/13 17:03:39;;;;;;;16.57;12.10;;;19.70;76.00;;;-142.21;100.00;112049.66;5091799;28;20299;-69
2022/10/13 17:06:07;;;;;;;16.97;11.17;;;19.70;75.90;;;-142.21;100.00;112049.66;5091508;28;20251;-70
2022/10/13 17:08:36;;;;;;;19.00;11.20;;;19.70;76.00;;;-142.21;100.00;112049.66;5091536;28;20204;-69
2022/10/13 17:11:04;;;;;;;12.67;10.73;;;19.60;75.90;;;-142.21;100.00;112049.66;5091120;28;20291;-70
2022/10/13 17:13:35;;;;;;;14.00;10.40;;;19.60;75.90;;;-142.21;100.00;112049.66;5091453;28;20600;-69
2022/10/13 17:16:03;;;;;;;12.73;9.03;;;19.60;75.90;;;-142.21;100.00;112049.66;5091391;28;20185;-69
2022/10/13 17:18:30;;;;;;;15.30;11.80;;;19.60;76.00;;;-142.21;100.00;112049.66;5091043;28;20232;-71
2022/10/13 17:21:00;;;;;;;17.10;11.30;;;19.50;76.10;;;-142.21;100.00;112049.66;5090505;28;20757;-69
2022/10/13 17:23:29;;;;;;;15.93;10.47;;;19.50;76.20;;;-142.21;100.00;112049.66;5091471;28;20446;-70
2022/10/13 17:26:02;;;;;;;12.13;10.27;;;19.40;76.30;;;-142.21;100.00;112049.66;5090794;28;20203;-70
2022/10/13 17:28:29;;;;;;;13.47;8.70;;;19.40;76.60;;;-142.21;100.00;112049.66;5091629;28;20224;-71
2022/10/13 17:31:01;;;;;;;18.00;9.57;;;19.40;76.60;;;-142.21;100.00;112049.66;5090734;28;20864;-69
2022/10/13 17:33:32;;;;;;;13.10;9.87;;;19.30;76.60;;;-142.21;100.00;112049.66;5091391;28;20462;-70
2022/10/13 17:36:00;;;;;;;18.07;9.97;;;19.30;76.60;;;-142.21;100.00;112049.66;5090380;28;20188;-69
2022/10/13 17:38:28;;;;;;;15.33;9.30;;;19.30;76.70;;;-142.21;100.00;112049.66;5091085;28;20575;-69
2022/10/13 17:41:01;;;;;;;12.37;10.10;;;19.30;76.70;;;-142.21;100.00;112049.66;5090537;28;20660;-70
2022/10/13 17:43:29;;;;;;;12.60;9.40;;;19.30;76.90;;;-142.21;100.00;112049.66;5091402;28;20427;-69
2022/10/13 17:46:07;;;;;;;13.10;10.17;;;19.20;76.80;;;-142.21;100.00;112049.66;5090814;28;20231;-70
2022/10/13 17:48:35;;;;;;;12.23;8.73;;;19.20;76.90;;;-142.21;100.00;112049.66;5090834;28;20254;-69
2022/10/13 17:51:06;;;;;;;12.67;9.30;;;19.20;77.00;;;-142.21;100.00;112049.66;5090792;28;20904;-69
2022/10/13 17:53:38;;;;;;;10.33;9.07;;;19.20;77.20;;;-142.21;100.00;112049.66;5091268;28;20212;-69
2022/10/13 17:56:08;;;;;;;12.10;8.97;;;19.20;77.20;;;-142.21;100.00;112049.66;5090927;28;20430;-69
2022/10/13 17:58:37;;;;;;;13.23;9.10;;;19.10;77.10;;;-142.21;100.00;112049.66;5091684;28;20207;-69
2022/10/13 18:01:10;;;;;;;13.10;9.03;;;19.10;77.20;;;-142.21;100.00;112049.66;5090508;28;20504;-70
2022/10/13 18:03:40;;;;;;;11.53;9.23;;;19.10;77.60;;;-142.21;100.00;112049.66;5090526;28;20201;-69
2022/10/13 18:06:08;;;;;;;11.83;9.57;;;19.00;77.60;;;-142.21;100.00;112049.66;5091266;28;20560;-69
2022/10/13 18:08:35;;;;;;;12.23;9.23;;;19.00;77.50;;;-142.21;100.00;112049.66;5091174;28;20453;-69
2022/10/13 18:11:07;;;;;;;12.27;8.90;;;19.10;77.70;;;-142.21;100.00;112049.66;5090471;28;20508;-69
2022/10/13 18:13:36;;;;;;;11.03;9.33;;;19.00;77.70;;;-142.21;100.00;112049.66;5090754;28;20212;-70
2022/10/13 18:16:05;;;;;;;12.77;8.83;;;19.00;77.50;;;-142.21;100.00;112049.66;5090418;28;20613;-70
2022/10/13 18:18:35;;;;;;;13.13;9.33;;;19.00;77.50;;;-142.21;100.00;112049.66;5091060;28;20283;-69
2022/10/13 18:21:04;;;;;;;15.20;9.70;;;19.00;77.60;;;-142.21;100.00;112049.66;5094636;28;20768;-70
2022/10/13 18:23:33;;;;;;;17.30;9.33;;;19.00;77.50;;;-142.21;100.00;112049.66;5094534;28;20235;-69
2022/10/13 18:26:02;;;;;;;12.50;9.53;;;19.00;77.50;;;-142.21;100.00;112049.66;5089637;28;20451;-69
2022/10/13 18:28:31;;;;;;;12.47;8.80;;;19.00;77.60;;;-142.21;100.00;112049.66;5093306;28;20519;-70
2022/10/13 18:31:07;;;;;;;11.23;8.53;;;19.00;77.70;;;-142.21;100.00;112049.66;5094254;28;20957;-70
2022/10/13 18:33:36;;;;;;;11.10;8.83;;;19.00;77.60;;;-142.21;100.00;112049.66;5094315;28;20510;-70
2022/10/13 18:36:14;;;;;;;11.40;9.20;;;18.90;77.50;;;-142.21;100.00;112049.66;5094356;28;20208;-71